»·PEaware :: YLSAT KSMX-KBFL

YLSAT :: KSMX-KBFL

FLIGHT INFORMATION

Flight Status: Arrived
Operator: Unknown
More flights by this operator :: More flights under this callsign
Pilot: Michael R. (33632)
Aircraft: GRUMMAN AERO AA5 CHEETAH TIGER
(AA5)
More flights by this aircraft type
Origin: KSMX Santa Maria Pub/Capt Hancock
United States
Destination: KBFL Meadows
United States
More flights between these airports :: More routes between these airports
Route: FLW
File this flight plan on PilotEdge
Remarks: CAT-5
Altitude:
(Current/Filed)
7,500ft
Speed:
(Current/Filed)
120kts
Departed: 06-Feb-21 08:06 AM
Arrived: 06-Feb-21 08:50 AM
Distance/Time
Traveled:
76nm/0:44
Distance/Time
To Go:
Arrived

Flight Plot

Page will automatically refresh every two minutes.


Map Options




Map Legend


Flown Route
Filed Route
Departure Airport
Arrival Airport
Navaid (VOR, NDB)
Fix

Horizontal Profiles

Position Reports

Time Latitude Longitude Heading Altitude Ground
Speed
06-Feb-21 07:55 34.901535 -120.451047 154 263ft 0kts
06-Feb-21 07:56 34.901535 -120.451047 154 263ft 0kts
06-Feb-21 07:57 34.901535 -120.451047 154 263ft 0kts
06-Feb-21 07:58 34.901535 -120.451047 154 263ft 0kts
06-Feb-21 07:59 34.901535 -120.451047 154 263ft 0kts
06-Feb-21 08:00 34.901535 -120.451047 154 263ft 0kts
06-Feb-21 08:01 34.901370 -120.450984 173 263ft 7kts
06-Feb-21 08:02 34.899015 -120.450257 176 263ft 5kts
06-Feb-21 08:04 34.896187 -120.447416 134 263ft 16kts
06-Feb-21 08:05 34.893826 -120.445635 174 263ft 0kts
06-Feb-21 08:06 34.898885 -120.453245 315 458ft 72kts
06-Feb-21 08:07 34.915148 -120.461034 58 1262ft 72kts
06-Feb-21 08:08 34.916738 -120.435121 90 2055ft 81kts
06-Feb-21 08:09 34.920610 -120.408593 70 2908ft 80kts
06-Feb-21 08:10 34.928756 -120.383322 69 3685ft 82kts
06-Feb-21 08:11 34.936984 -120.357581 68 4438ft 81kts
06-Feb-21 08:12 34.945225 -120.331730 68 5115ft 84kts
06-Feb-21 08:13 34.953869 -120.304600 67 5708ft 90kts
06-Feb-21 08:14 34.963008 -120.275925 66 6282ft 90kts
06-Feb-21 08:15 34.972076 -120.247391 65 6839ft 90kts
06-Feb-21 08:16 34.981712 -120.217211 64 7194ft 103kts
06-Feb-21 08:17 34.992170 -120.184238 63 7428ft 103kts
06-Feb-21 08:18 35.002910 -120.150504 63 7497ft 109kts
06-Feb-21 08:18 35.012281 -120.121017 63 7506ft 113kts
06-Feb-21 08:20 35.025773 -120.078414 62 7507ft 116kts
06-Feb-21 08:21 35.037550 -120.041190 62 7511ft 118kts
06-Feb-21 08:21 35.047467 -120.009828 62 7516ft 119kts
06-Feb-21 08:22 35.059450 -119.971903 62 7515ft 120kts
06-Feb-21 08:23 35.071527 -119.933619 62 7502ft 121kts
06-Feb-21 08:24 35.083522 -119.895495 62 7498ft 121kts
06-Feb-21 08:25 35.095550 -119.857201 62 7524ft 119kts
06-Feb-21 08:26 35.109928 -119.820295 55 7483ft 121kts
06-Feb-21 08:27 35.125701 -119.783684 54 7457ft 121kts
06-Feb-21 08:28 35.141523 -119.747357 56 7477ft 120kts
06-Feb-21 08:29 35.156724 -119.711016 55 7478ft 121kts
06-Feb-21 08:30 35.172399 -119.674160 55 7451ft 122kts
06-Feb-21 08:31 35.188213 -119.636802 56 7440ft 124kts
06-Feb-21 08:32 35.203880 -119.598853 57 7354ft 128kts
06-Feb-21 08:33 35.220951 -119.558262 57 6846ft 139kts
06-Feb-21 08:34 35.238626 -119.516087 58 6297ft 138kts
06-Feb-21 08:35 35.256395 -119.474574 58 5834ft 137kts
06-Feb-21 08:36 35.273982 -119.432549 58 5323ft 141kts
06-Feb-21 08:37 35.292075 -119.389781 58 4775ft 141kts
06-Feb-21 08:38 35.309533 -119.346520 62 4235ft 142kts
06-Feb-21 08:39 35.325760 -119.302413 59 3701ft 141kts
06-Feb-21 08:40 35.349512 -119.263462 47 3210ft 144kts
06-Feb-21 08:41 35.373324 -119.224884 54 2947ft 141kts
06-Feb-21 08:42 35.394501 -119.183842 57 2640ft 144kts
06-Feb-21 08:43 35.414925 -119.142970 58 2164ft 123kts
06-Feb-21 08:44 35.429080 -119.106948 67 1642ft 114kts
06-Feb-21 08:45 35.419512 -119.074294 132 1439ft 106kts
06-Feb-21 08:46 35.400276 -119.049095 110 1352ft 91kts
06-Feb-21 08:47 35.413526 -119.034956 339 917ft 72kts
06-Feb-21 08:48 35.428858 -119.050162 315 533ft 72kts
06-Feb-21 08:49 35.436476 -119.057974 70 491ft 0kts
06-Feb-21 08:50 35.434598 -119.054883 135 490ft 24kts
06-Feb-21 08:51 35.431377 -119.050231 47 492ft 6kts
06-Feb-21 08:52 35.431198 -119.048273 55 496ft 0kts

Navigation Log

Ident Type
Flight plan parsing failed, navigation log unavailable